หน้าหลัก
METAR-TAF:

METAR-TAF

ท่าอากาศยาน :

ท่าอากาศยานโคเปนเฮเกน

โคเปนเฮเกน, เดนมาร์ก

ละติจูด: 55-37N, ลองจิจูด: 012-39E, ความสูง: 5 ม.

การสังเกตสภาพอากาศปัจจุบัน

รายงานได้ทำขึ้นเมื่อ 12 นาทีที่แล้ว ณ เวลา 10:50 UTC
ลม 7 นอตจากตะวันตก/ตะวันตกเฉียงเหนือ, แปรผันระหว่างตะวันตก และเหนือ/ตะวันตกเฉียงเหนือ
อุณหภูมิ 18°C
ความชื้น 59%
ความกดอากาศ 1016 hPa
ทัศนวิสัย 10 กม. หรือมากกว่า

METAR: EKCH 251050Z AUTO 30007KT 270V330 9999 BKN039/// OVC049/// 18/10 Q1016 NOSIG

เวลา: 13:02 (11:02 UTC)

การพยากรณ์

รายงานได้ทำขึ้นเมื่อ 5 ชั่วโมงและ 50 นาทีที่แล้ว ณ เวลา 05:12 UTC
การพยากรณ์มีผลตั้งแต่วันที่ 25 ณ เวลา 06 UTC จนถึงวันที่ 26 ณ เวลา 06 UTC
ลม 6 นอตจากตะวันตก/ตะวันตกเฉียงเหนือ
ทัศนวิสัย 10 กม. หรือมากกว่า
มีเมฆเป็นส่วนมากเว้นเป็นระยะที่ความสูง 3000 ฟุต

TAF: EKCH 250512Z 2506/2606 30006KT 9999 BKN030

สังเกตการณ์สภาพอากาศและพยากรณ์อากาศของสนามบินมากกว่า 4000 แห่ง (รายงาน METAR และ TAF).

สถานีที่ดูได้จะแสดงไว้ด้วยจุดสีเหลืองและสีแดงบนแผนที่.

เลื่อนเมาส์ไปเหนือจุดเพื่อดูชื่อสถานี.

แล้วคลิกเพื่อดูสังเกตการณ์และการพยากรณ์สภาพอากาศ.

ในการเปลี่ยนแผนที่: คลิกที่ปุ่มสีเขียวที่มีกากบาทสีดำเพื่อซูมเข้า; ที่ปุ่มสีเขียวที่มีขีดเพื่อซูมออก; หรือที่ลูกศรสีเขียวเพื่อไปยังแผนที่ที่อยู่ติดกัน.


METAR-TAF: